createdAt,value
2022-12-11T00:01:09.646Z,99415.13
2022-12-11T00:02:11.754Z,99404.91
2022-12-11T00:03:16.104Z,99400.59
2022-12-11T00:04:18.348Z,99406.59
2022-12-11T00:05:19.989Z,99399.81
2022-12-11T00:06:23.422Z,99413.47
2022-12-11T00:07:25.083Z,99405.84
2022-12-11T00:08:27.000Z,99399.88
2022-12-11T00:09:28.884Z,99398.25
2022-12-11T00:10:34.626Z,99392.25
2022-12-11T00:11:39.412Z,99407.66
2022-12-11T00:12:41.313Z,99395.72
2022-12-11T00:13:43.571Z,99416.25
2022-12-11T00:14:45.184Z,99418.00
2022-12-11T00:15:47.102Z,99406.09
2022-12-11T00:16:50.073Z,99415.50
2022-12-11T00:17:52.084Z,99400.97
2022-12-11T00:18:56.395Z,99396.72
2022-12-11T00:19:58.473Z,99408.72
2022-12-11T00:21:04.893Z,99402.75
2022-12-11T00:22:07.796Z,99403.63
2022-12-11T00:23:11.475Z,99404.50
2022-12-11T00:24:13.027Z,99409.66
2022-12-11T00:25:14.856Z,99404.56
2022-12-11T00:26:16.659Z,99411.38
2022-12-11T00:27:19.005Z,99404.53
2022-12-11T00:28:20.610Z,99404.56
2022-12-11T00:29:22.180Z,99415.69
2022-12-11T00:30:24.664Z,99413.13
2022-12-11T00:31:29.275Z,99411.41
2022-12-11T00:32:36.220Z,99391.75
2022-12-11T00:33:39.553Z,99412.25
2022-12-11T00:34:41.193Z,99408.00
2022-12-11T00:35:46.216Z,99411.44
2022-12-11T00:36:48.110Z,99412.28
2022-12-11T00:37:49.717Z,99416.56
2022-12-11T00:38:52.059Z,99412.28
2022-12-11T00:39:53.892Z,99387.53
2022-12-11T00:40:59.909Z,99416.56
2022-12-11T00:42:01.880Z,99405.44
2022-12-11T00:43:04.119Z,99400.31
2022-12-11T00:44:05.825Z,99399.50
2022-12-11T00:45:08.151Z,99390.09
2022-12-11T00:46:10.686Z,99416.56
2022-12-11T00:47:12.719Z,99404.59
2022-12-11T00:48:14.501Z,99396.06
2022-12-11T00:49:16.106Z,99396.03
2022-12-11T00:50:19.309Z,99414.03
2022-12-11T00:51:21.311Z,99408.88
2022-12-11T00:52:23.330Z,99411.47
2022-12-11T00:53:25.033Z,99405.44
2022-12-11T00:54:26.667Z,99415.72
2022-12-11T00:55:29.516Z,99409.72
2022-12-11T00:56:31.201Z,99389.25
2022-12-11T00:57:33.463Z,99401.19
2022-12-11T00:58:35.136Z,99411.44
2022-12-11T00:59:36.717Z,99404.59
2022-12-11T01:00:39.500Z,99398.66
2022-12-11T01:01:41.601Z,99402.91
2022-12-11T01:02:44.032Z,99413.16
2022-12-11T01:03:46.046Z,99414.00
2022-12-11T01:04:47.752Z,99396.94
2022-12-11T01:05:56.945Z,99416.56
2022-12-11T01:06:58.636Z,99418.28
2022-12-11T01:08:00.841Z,99414.88
2022-12-11T01:09:21.109Z,99390.94
2022-12-11T01:10:25.799Z,99431.09
2022-12-11T01:11:27.611Z,99415.72
2022-12-11T01:12:29.252Z,99432.81
2022-12-11T01:13:34.403Z,99433.66
2022-12-11T01:14:36.048Z,99431.09
2022-12-11T01:15:43.900Z,99439.63
2022-12-11T01:16:45.959Z,99430.25
2022-12-11T01:17:47.556Z,99438.78
2022-12-11T01:18:49.140Z,99424.28
2022-12-11T01:19:50.667Z,99438.78
2022-12-11T01:20:52.681Z,99411.44
2022-12-11T01:21:54.577Z,99446.47
2022-12-11T01:22:58.961Z,99438.78
2022-12-11T01:24:00.802Z,99449.91
2022-12-11T01:25:02.991Z,99440.50
2022-12-11T01:26:14.013Z,99445.63
2022-12-11T01:27:15.701Z,99442.19
2022-12-11T01:28:17.663Z,99410.59
2022-12-11T01:29:19.288Z,99425.09
2022-12-11T01:30:23.028Z,99436.22
2022-12-11T01:31:25.344Z,99446.47
2022-12-11T01:32:28.907Z,99399.47
2022-12-11T01:33:30.578Z,99439.63
2022-12-11T01:34:33.321Z,99446.44
2022-12-11T01:35:35.047Z,99447.31
2022-12-11T01:36:36.743Z,99430.22
2022-12-11T01:37:38.869Z,99432.78
2022-12-11T01:38:41.007Z,99439.63
2022-12-11T01:39:43.062Z,99441.34
2022-12-11T01:40:49.273Z,99440.50
2022-12-11T01:41:51.393Z,99445.59
2022-12-11T01:42:53.002Z,99443.03
2022-12-11T01:44:20.567Z,99437.94
2022-12-11T01:45:26.738Z,99443.88
2022-12-11T01:46:31.004Z,99443.03
2022-12-11T01:47:32.884Z,99447.34
2022-12-11T01:48:39.203Z,99431.09
2022-12-11T01:49:43.933Z,99453.28
2022-12-11T01:50:50.596Z,99455.00
2022-12-11T01:52:08.117Z,99453.28
2022-12-11T01:53:15.406Z,99456.72
2022-12-11T01:54:19.274Z,99462.69
2022-12-11T01:55:22.014Z,99453.31
2022-12-11T01:56:25.706Z,99449.03
2022-12-11T01:57:27.443Z,99453.28
2022-12-11T01:58:34.209Z,99449.00
2022-12-11T01:59:39.927Z,99453.28
2022-12-11T02:00:43.260Z,99443.91
2022-12-11T02:01:48.363Z,99450.72
2022-12-11T02:02:50.028Z,99443.03
2022-12-11T02:03:54.902Z,99437.03
2022-12-11T02:04:56.535Z,99454.16
2022-12-11T02:06:02.721Z,99454.13
2022-12-11T02:07:05.817Z,99434.47
2022-12-11T02:08:08.589Z,99449.00
2022-12-11T02:09:14.034Z,99447.28
2022-12-11T02:10:16.628Z,99436.19
2022-12-11T02:11:26.169Z,99456.66
2022-12-11T02:12:40.726Z,99432.75
2022-12-11T02:13:57.310Z,99448.97
2022-12-11T02:15:17.687Z,99450.69
2022-12-11T02:16:27.375Z,99452.41
2022-12-11T02:17:51.835Z,99454.09
2022-12-11T02:19:08.121Z,99460.94
2022-12-11T02:20:17.518Z,99466.06
2022-12-11T02:21:32.754Z,99463.47
2022-12-11T02:22:54.147Z,99463.50
2022-12-11T02:24:29.111Z,99454.97
2022-12-11T02:25:52.771Z,99448.09
2022-12-11T02:27:12.530Z,99458.38
2022-12-11T02:28:24.066Z,99468.63
2022-12-11T02:30:01.158Z,99463.50
2022-12-11T02:31:09.467Z,99463.50
2022-12-11T02:32:16.486Z,99453.22
2022-12-11T02:33:26.808Z,99464.31
2022-12-11T02:34:37.565Z,99460.91
2022-12-11T02:35:45.791Z,99460.91
2022-12-11T02:36:54.065Z,99463.47
2022-12-11T02:38:00.733Z,99447.28
2022-12-11T02:39:04.630Z,99445.56
2022-12-11T02:40:11.376Z,99448.97
2022-12-11T02:41:13.665Z,99455.78
2022-12-11T02:42:16.556Z,99437.84
2022-12-11T02:43:21.864Z,99455.75
2022-12-11T02:44:29.812Z,99459.19
2022-12-11T02:45:34.030Z,99448.97
2022-12-11T02:46:37.181Z,99452.38
2022-12-11T02:47:39.861Z,99456.63
2022-12-11T02:48:43.307Z,99459.19
2022-12-11T02:49:50.475Z,99448.94
2022-12-11T02:50:56.542Z,99458.34
2022-12-11T02:52:02.321Z,99468.63
2022-12-11T02:53:08.035Z,99450.63
2022-12-11T02:54:17.330Z,99442.09
2022-12-11T02:55:20.894Z,99462.59
2022-12-11T02:56:30.795Z,99428.44
2022-12-11T02:57:45.764Z,99450.63
2022-12-11T02:58:58.179Z,99422.44
2022-12-11T03:00:00.526Z,99440.41
2022-12-11T03:01:03.645Z,99442.13
2022-12-11T03:02:05.777Z,99440.41
2022-12-11T03:03:09.490Z,99429.28
2022-12-11T03:04:11.343Z,99451.53
2022-12-11T03:05:14.943Z,99442.13
2022-12-11T03:06:20.651Z,99428.44
2022-12-11T03:07:29.572Z,99447.25
2022-12-11T03:08:32.347Z,99452.41
2022-12-11T03:09:33.956Z,99447.28
2022-12-11T03:10:36.187Z,99431.00
2022-12-11T03:11:37.786Z,99436.16
2022-12-11T03:12:42.759Z,99446.38
2022-12-11T03:13:45.662Z,99453.22
2022-12-11T03:14:50.129Z,99454.06
2022-12-11T03:16:04.752Z,99459.19
2022-12-11T03:17:18.228Z,99450.66
2022-12-11T03:18:31.265Z,99451.53
2022-12-11T03:19:43.772Z,99458.34
2022-12-11T03:20:56.110Z,99449.78
2022-12-11T03:22:00.878Z,99457.47
2022-12-11T03:23:11.852Z,99452.38
2022-12-11T03:24:44.097Z,99454.94
2022-12-11T03:25:56.507Z,99456.66
2022-12-11T03:27:11.115Z,99458.34
2022-12-11T03:28:24.071Z,99456.63
2022-12-11T03:29:38.139Z,99437.84
2022-12-11T03:30:42.297Z,99429.31
2022-12-11T03:31:50.200Z,99439.56
2022-12-11T03:32:57.495Z,99450.69
2022-12-11T03:34:08.702Z,99454.09
2022-12-11T03:35:21.530Z,99448.94
2022-12-11T03:36:27.159Z,99448.13
2022-12-11T03:37:33.277Z,99450.69
2022-12-11T03:39:05.421Z,99438.75
2022-12-11T03:40:13.268Z,99438.72
2022-12-11T03:41:22.479Z,99457.56
2022-12-11T03:42:26.823Z,99445.59
2022-12-11T03:43:30.187Z,99455.88
2022-12-11T03:44:33.564Z,99458.41
2022-12-11T03:45:37.471Z,99445.59
2022-12-11T03:46:41.459Z,99457.56
2022-12-11T03:47:45.246Z,99452.44
2022-12-11T03:48:50.728Z,99446.44
2022-12-11T03:49:53.971Z,99431.06
2022-12-11T03:50:57.439Z,99449.00
2022-12-11T03:52:01.920Z,99444.75
2022-12-11T03:53:06.314Z,99450.72
2022-12-11T03:54:08.233Z,99445.63
2022-12-11T03:55:15.234Z,99455.88
2022-12-11T03:56:19.978Z,99437.94
2022-12-11T03:57:30.383Z,99454.19
2022-12-11T03:58:32.517Z,99443.91
2022-12-11T03:59:35.093Z,99449.03
2022-12-11T04:00:37.549Z,99467.00
2022-12-11T04:01:40.081Z,99463.56
2022-12-11T04:02:42.616Z,99466.13
2022-12-11T04:03:44.606Z,99465.28
2022-12-11T04:04:46.235Z,99455.88
2022-12-11T04:05:53.797Z,99437.94
2022-12-11T04:06:55.378Z,99442.19
2022-12-11T04:07:56.976Z,99441.38
2022-12-11T04:08:58.809Z,99454.16
2022-12-11T04:10:02.554Z,99445.66
2022-12-11T04:11:23.380Z,99455.88
2022-12-11T04:12:25.202Z,99452.47
2022-12-11T04:13:26.912Z,99453.31
2022-12-11T04:14:47.546Z,99440.50
2022-12-11T04:15:50.741Z,99440.50
2022-12-11T04:16:53.465Z,99435.38
2022-12-11T04:18:13.433Z,99442.22
2022-12-11T04:19:33.816Z,99414.00
2022-12-11T04:20:53.981Z,99431.94
2022-12-11T04:22:34.105Z,99441.38
2022-12-11T04:23:56.408Z,99437.09
2022-12-11T04:24:58.203Z,99431.09
2022-12-11T04:26:09.417Z,99439.63
2022-12-11T04:27:11.460Z,99433.66
2022-12-11T04:28:13.286Z,99439.63
2022-12-11T04:29:17.060Z,99449.88
2022-12-11T04:30:23.013Z,99438.81
2022-12-11T04:31:24.721Z,99431.94
2022-12-11T04:32:26.349Z,99424.25
2022-12-11T04:33:28.710Z,99414.84
2022-12-11T04:34:30.548Z,99442.22
2022-12-11T04:35:32.801Z,99425.09
2022-12-11T04:36:34.654Z,99412.28
2022-12-11T04:37:36.935Z,99429.41
2022-12-11T04:38:39.300Z,99431.09
2022-12-11T04:39:41.229Z,99416.56
2022-12-11T04:40:42.952Z,99415.72
2022-12-11T04:41:44.889Z,99410.59
2022-12-11T04:42:46.956Z,99431.09
2022-12-11T04:43:48.797Z,99426.81
2022-12-11T04:44:51.012Z,99431.94
2022-12-11T04:46:01.484Z,99436.22
2022-12-11T04:47:03.771Z,99431.97
2022-12-11T04:48:05.555Z,99420.84
2022-12-11T04:49:07.190Z,99437.94
2022-12-11T04:50:11.588Z,99433.66
2022-12-11T04:51:14.594Z,99422.56
2022-12-11T04:52:18.061Z,99414.00
2022-12-11T04:53:19.598Z,99410.59
2022-12-11T04:54:21.499Z,99407.19
2022-12-11T04:55:24.505Z,99418.28
2022-12-11T04:56:26.233Z,99427.69
2022-12-11T04:57:30.314Z,99419.13
2022-12-11T04:58:32.073Z,99413.16
2022-12-11T04:59:33.722Z,99424.28
2022-12-11T05:00:38.058Z,99430.25
2022-12-11T05:01:39.954Z,99409.75
2022-12-11T05:02:42.112Z,99422.56
2022-12-11T05:03:44.345Z,99414.88
2022-12-11T05:04:46.345Z,99419.13
2022-12-11T05:05:54.754Z,99416.56
2022-12-11T05:06:56.545Z,99415.72
2022-12-11T05:07:58.343Z,99410.59
2022-12-11T05:09:00.337Z,99399.50
2022-12-11T05:10:01.917Z,99409.75
2022-12-11T05:11:06.785Z,99408.88
2022-12-11T05:12:08.360Z,99395.22
2022-12-11T05:13:10.220Z,99404.59
2022-12-11T05:14:12.080Z,99408.03
2022-12-11T05:15:14.149Z,99401.19
2022-12-11T05:16:17.219Z,99404.63
2022-12-11T05:17:20.033Z,99395.22
2022-12-11T05:18:24.463Z,99402.03
2022-12-11T05:19:26.337Z,99411.44
2022-12-11T05:20:28.438Z,99408.88
2022-12-11T05:21:34.799Z,99406.31
2022-12-11T05:22:38.243Z,99399.50
2022-12-11T05:23:41.441Z,99407.19
2022-12-11T05:24:43.475Z,99375.56
2022-12-11T05:25:52.405Z,99403.75
2022-12-11T05:26:53.959Z,99404.63
2022-12-11T05:27:55.683Z,99402.91
2022-12-11T05:28:57.346Z,99387.53
2022-12-11T05:29:59.905Z,99400.34
2022-12-11T05:31:04.874Z,99400.34
2022-12-11T05:32:06.707Z,99413.16
2022-12-11T05:33:08.498Z,99402.91
2022-12-11T05:34:10.583Z,99383.25
2022-12-11T05:35:12.743Z,99406.34
2022-12-11T05:36:19.255Z,99410.59
2022-12-11T05:37:21.290Z,99426.84
2022-12-11T05:38:24.941Z,99399.47
2022-12-11T05:39:26.996Z,99375.56
2022-12-11T05:40:28.926Z,99397.78
2022-12-11T05:41:32.991Z,99397.78
2022-12-11T05:42:35.046Z,99394.38
2022-12-11T05:43:37.110Z,99377.28
2022-12-11T05:44:39.043Z,99384.09
2022-12-11T05:45:40.897Z,99393.50
2022-12-11T05:46:46.496Z,99392.66
2022-12-11T05:47:48.152Z,99380.72
2022-12-11T05:48:52.107Z,99393.50
2022-12-11T05:49:53.950Z,99390.09
2022-12-11T05:51:00.304Z,99378.97
2022-12-11T05:52:01.845Z,99392.66
2022-12-11T05:53:05.431Z,99384.94
2022-12-11T05:54:07.547Z,99379.81
2022-12-11T05:55:09.963Z,99383.25
2022-12-11T05:56:15.592Z,99396.94
2022-12-11T05:57:17.646Z,99376.41
2022-12-11T05:58:19.821Z,99385.81
2022-12-11T05:59:21.560Z,99387.50
2022-12-11T06:00:23.172Z,99391.81
2022-12-11T06:01:34.100Z,99394.34
2022-12-11T06:02:37.732Z,99389.25
2022-12-11T06:03:39.494Z,99389.22
2022-12-11T06:04:41.722Z,99390.94
2022-12-11T06:05:43.399Z,99384.09
2022-12-11T06:06:45.157Z,99376.41
2022-12-11T06:07:46.996Z,99385.81
2022-12-11T06:08:52.645Z,99390.09
2022-12-11T06:09:54.366Z,99375.56
2022-12-11T06:10:56.259Z,99381.56
2022-12-11T06:11:58.686Z,99358.47
2022-12-11T06:13:00.701Z,99376.44
2022-12-11T06:14:03.812Z,99367.88
2022-12-11T06:15:06.323Z,99375.56
2022-12-11T06:16:09.349Z,99387.53
2022-12-11T06:17:11.273Z,99379.00
2022-12-11T06:18:13.228Z,99360.19
2022-12-11T06:19:20.287Z,99372.16
2022-12-11T06:20:22.334Z,99373.84
2022-12-11T06:21:28.636Z,99367.03
2022-12-11T06:22:30.588Z,99362.75
2022-12-11T06:23:32.440Z,99384.09
2022-12-11T06:24:34.086Z,99376.41
2022-12-11T06:25:39.931Z,99365.31
2022-12-11T06:26:44.758Z,99360.19
2022-12-11T06:27:46.746Z,99371.31
2022-12-11T06:28:49.482Z,99384.13
2022-12-11T06:29:53.259Z,99384.97
2022-12-11T06:30:56.172Z,99365.31
2022-12-11T06:31:58.497Z,99379.84
2022-12-11T06:33:00.690Z,99377.28
2022-12-11T06:34:02.552Z,99377.28
2022-12-11T06:35:05.189Z,99367.00
2022-12-11T06:36:10.433Z,99350.81
2022-12-11T06:37:12.363Z,99370.44
2022-12-11T06:38:14.169Z,99385.81
2022-12-11T06:39:16.036Z,99358.50
2022-12-11T06:40:17.737Z,99359.34
2022-12-11T06:41:20.551Z,99367.88
2022-12-11T06:42:22.337Z,99373.88
2022-12-11T06:43:24.823Z,99381.56
2022-12-11T06:44:26.447Z,99385.81
2022-12-11T06:45:28.734Z,99384.13
2022-12-11T06:46:30.488Z,99380.69
2022-12-11T06:47:33.362Z,99389.25
2022-12-11T06:48:37.469Z,99382.41
2022-12-11T06:49:39.381Z,99382.38
2022-12-11T06:50:41.070Z,99373.00
2022-12-11T06:51:46.845Z,99381.50
2022-12-11T06:52:48.435Z,99389.25
2022-12-11T06:53:56.827Z,99404.63
2022-12-11T06:55:00.138Z,99408.88
2022-12-11T06:56:03.810Z,99396.94
2022-12-11T06:57:05.878Z,99376.41
2022-12-11T06:58:10.021Z,99405.44
2022-12-11T06:59:14.867Z,99401.19
2022-12-11T07:00:16.805Z,99410.56
2022-12-11T07:01:21.487Z,99395.22
2022-12-11T07:02:26.065Z,99395.19
2022-12-11T07:03:28.703Z,99394.31
2022-12-11T07:04:31.123Z,99396.06
2022-12-11T07:05:34.659Z,99388.38
2022-12-11T07:06:36.375Z,99393.47
2022-12-11T07:07:39.530Z,99388.34
2022-12-11T07:08:44.498Z,99379.81
2022-12-11T07:09:46.227Z,99408.03
2022-12-11T07:10:48.433Z,99402.06
2022-12-11T07:11:51.991Z,99395.22
2022-12-11T07:12:54.518Z,99378.13
2022-12-11T07:14:00.104Z,99399.50
2022-12-11T07:15:02.035Z,99408.88
2022-12-11T07:16:10.048Z,99397.78
2022-12-11T07:17:11.785Z,99394.38
2022-12-11T07:18:14.865Z,99402.88
2022-12-11T07:19:17.129Z,99388.38
2022-12-11T07:20:37.494Z,99403.75
2022-12-11T07:21:42.660Z,99408.91
2022-12-11T07:22:52.653Z,99401.19
2022-12-11T07:23:57.772Z,99396.94
2022-12-11T07:25:06.321Z,99412.31
2022-12-11T07:26:16.993Z,99410.59
2022-12-11T07:27:19.788Z,99390.09
2022-12-11T07:28:21.495Z,99412.31
2022-12-11T07:29:23.262Z,99379.84
2022-12-11T07:30:27.346Z,99392.63
2022-12-11T07:31:31.644Z,99405.47
2022-12-11T07:32:33.414Z,99403.75
2022-12-11T07:33:38.654Z,99403.75
2022-12-11T07:34:51.424Z,99400.34
2022-12-11T07:35:55.170Z,99403.75
2022-12-11T07:36:56.755Z,99409.75
2022-12-11T07:37:59.861Z,99396.06
2022-12-11T07:39:01.601Z,99409.75
2022-12-11T07:40:12.640Z,99400.34
2022-12-11T07:41:17.875Z,99413.16
2022-12-11T07:42:19.765Z,99412.31
2022-12-11T07:43:21.738Z,99416.56
2022-12-11T07:44:23.572Z,99393.50
2022-12-11T07:45:26.464Z,99392.66
2022-12-11T07:46:30.085Z,99406.31
2022-12-11T07:47:31.984Z,99408.03
2022-12-11T07:48:43.112Z,99406.31
2022-12-11T07:49:44.999Z,99379.81
2022-12-11T07:50:47.041Z,99402.06
2022-12-11T07:51:48.866Z,99398.63
2022-12-11T07:52:50.363Z,99401.19
2022-12-11T07:53:54.788Z,99403.75
2022-12-11T07:54:56.876Z,99394.34
2022-12-11T07:55:59.890Z,99404.63
2022-12-11T07:57:02.024Z,99398.63
2022-12-11T07:58:04.490Z,99402.91
2022-12-11T07:59:06.918Z,99396.06
2022-12-11T08:00:09.161Z,99379.00
2022-12-11T08:01:22.464Z,99374.72
2022-12-11T08:02:24.361Z,99402.88
2022-12-11T08:03:26.126Z,99402.91
2022-12-11T08:04:28.475Z,99405.47
2022-12-11T08:05:30.841Z,99390.06
2022-12-11T08:06:35.090Z,99405.44
2022-12-11T08:07:38.241Z,99407.16
2022-12-11T08:08:41.478Z,99395.19
2022-12-11T08:09:43.394Z,99401.16
2022-12-11T08:10:48.344Z,99400.31
2022-12-11T08:11:51.501Z,99387.50
2022-12-11T08:12:59.899Z,99407.13
2022-12-11T08:14:03.493Z,99402.84
2022-12-11T08:15:06.660Z,99356.72
2022-12-11T08:16:11.975Z,99402.84
2022-12-11T08:17:14.272Z,99408.81
2022-12-11T08:18:17.742Z,99410.53
2022-12-11T08:19:20.684Z,99408.00
2022-12-11T08:20:24.133Z,99416.53
2022-12-11T08:21:31.032Z,99389.19
2022-12-11T08:22:33.475Z,99413.97
2022-12-11T08:23:35.308Z,99413.09
2022-12-11T08:24:37.005Z,99412.25
2022-12-11T08:25:43.117Z,99413.97
2022-12-11T08:26:44.731Z,99408.00
2022-12-11T08:27:46.319Z,99396.84
2022-12-11T08:28:48.180Z,99409.66
2022-12-11T08:29:49.761Z,99406.25
2022-12-11T08:30:51.537Z,99406.22
2022-12-11T08:31:53.556Z,99407.94
2022-12-11T08:32:55.493Z,99398.56
2022-12-11T08:33:57.864Z,99399.41
2022-12-11T08:34:59.664Z,99425.00
2022-12-11T08:36:08.219Z,99415.56
2022-12-11T08:37:09.863Z,99416.41
2022-12-11T08:38:15.322Z,99418.97
2022-12-11T08:39:17.121Z,99403.56
2022-12-11T08:40:18.870Z,99417.22
2022-12-11T08:41:23.158Z,99416.38
2022-12-11T08:42:24.826Z,99411.22
2022-12-11T08:43:26.779Z,99414.59
2022-12-11T08:44:28.548Z,99412.88
2022-12-11T08:45:34.523Z,99412.03
2022-12-11T08:46:37.407Z,99417.16
2022-12-11T08:47:39.012Z,99399.19
2022-12-11T08:48:42.732Z,99400.94
2022-12-11T08:49:44.728Z,99422.31
2022-12-11T08:50:46.583Z,99395.84
2022-12-11T08:51:48.367Z,99400.94
2022-12-11T08:52:51.291Z,99398.44
2022-12-11T08:53:55.401Z,99387.31
2022-12-11T08:54:58.302Z,99392.44
2022-12-11T08:56:03.796Z,99415.47
2022-12-11T08:57:06.548Z,99415.47
2022-12-11T08:58:09.100Z,99410.31
2022-12-11T08:59:11.111Z,99394.94
2022-12-11T09:00:14.334Z,99409.41
2022-12-11T09:01:21.815Z,99403.38
2022-12-11T09:02:24.066Z,99406.75
2022-12-11T09:03:26.379Z,99397.38
2022-12-11T09:04:28.346Z,99393.03
2022-12-11T09:05:33.844Z,99411.00
2022-12-11T09:06:36.118Z,99374.28
2022-12-11T09:07:42.503Z,99393.00
2022-12-11T09:08:51.953Z,99404.09
2022-12-11T09:09:55.914Z,99391.28
2022-12-11T09:11:06.935Z,99392.00
2022-12-11T09:12:10.092Z,99379.16
2022-12-11T09:13:11.716Z,99361.13
2022-12-11T09:14:13.507Z,99388.34
2022-12-11T09:15:15.537Z,99399.50
2022-12-11T09:16:20.864Z,99385.78
2022-12-11T09:17:22.861Z,99393.53
2022-12-11T09:18:24.731Z,99402.09
2022-12-11T09:19:32.083Z,99402.91
2022-12-11T09:20:37.236Z,99370.25
2022-12-11T09:21:38.871Z,99380.47
2022-12-11T09:22:42.962Z,99354.06
2022-12-11T09:23:45.486Z,99379.72
2022-12-11T09:24:47.409Z,99401.16
2022-12-11T09:25:48.937Z,99378.06
2022-12-11T09:26:50.774Z,99374.63
2022-12-11T09:27:52.310Z,99364.31
2022-12-11T09:28:55.354Z,99369.28
2022-12-11T09:29:57.015Z,99381.16
2022-12-11T09:30:59.093Z,99351.16
2022-12-11T09:32:01.005Z,99379.25
2022-12-11T09:33:02.940Z,99383.47
2022-12-11T09:34:08.087Z,99344.94
2022-12-11T09:35:10.675Z,99346.47
2022-12-11T09:36:13.453Z,99378.09
2022-12-11T09:37:15.293Z,99381.56
2022-12-11T09:38:17.242Z,99382.59
2022-12-11T09:39:19.715Z,99384.22
2022-12-11T09:40:21.438Z,99381.59
2022-12-11T09:41:23.184Z,99377.13
2022-12-11T09:43:05.317Z,99381.50
2022-12-11T09:44:23.402Z,99377.13
2022-12-11T09:45:25.304Z,99370.25
2022-12-11T09:46:33.909Z,99381.31
2022-12-11T09:47:41.834Z,99383.19
2022-12-11T09:48:49.115Z,99389.22
2022-12-11T09:49:58.806Z,99370.25
2022-12-11T09:51:13.165Z,99356.63
2022-12-11T09:52:24.027Z,99343.72
2022-12-11T09:53:34.430Z,99368.44
2022-12-11T09:54:37.202Z,99366.75
2022-12-11T09:55:51.336Z,99373.09
2022-12-11T09:57:03.774Z,99375.59
2022-12-11T09:58:05.356Z,99370.38
2022-12-11T09:59:11.708Z,99363.47
2022-12-11T10:00:24.786Z,99360.88
2022-12-11T10:01:56.088Z,99340.53
2022-12-11T10:03:16.572Z,99363.34
2022-12-11T10:04:36.268Z,99328.50
2022-12-11T10:05:44.326Z,99355.69
2022-12-11T10:07:06.413Z,99347.97
2022-12-11T10:08:46.468Z,99340.19
2022-12-11T10:10:07.701Z,99344.31
2022-12-11T10:11:56.092Z,99346.94
2022-12-11T10:13:09.257Z,99317.84
2022-12-11T10:14:22.792Z,99326.97
2022-12-11T10:15:40.159Z,99346.34
2022-12-11T10:16:53.093Z,99298.41
2022-12-11T10:18:04.391Z,99342.81
2022-12-11T10:19:25.015Z,99342.88
2022-12-11T10:20:33.607Z,99330.84
2022-12-11T10:21:42.677Z,99334.09
2022-12-11T10:22:45.656Z,99322.94
2022-12-11T10:24:03.694Z,99332.13
2022-12-11T10:25:18.963Z,99313.19
2022-12-11T10:26:23.401Z,99302.69
2022-12-11T10:27:33.110Z,99320.34
2022-12-11T10:28:35.748Z,99318.41
2022-12-11T10:29:37.532Z,99338.19
2022-12-11T10:30:46.121Z,99314.13
2022-12-11T10:31:54.703Z,99320.81
2022-12-11T10:33:22.818Z,99320.16
2022-12-11T10:34:32.137Z,99325.03
2022-12-11T10:35:40.943Z,99313.31
2022-12-11T10:36:43.504Z,99313.34
2022-12-11T10:37:45.537Z,99312.59
2022-12-11T10:38:47.617Z,99322.19
2022-12-11T10:39:49.544Z,99265.03
2022-12-11T10:40:56.012Z,99289.56
2022-12-11T10:41:58.616Z,99293.13
2022-12-11T10:43:01.332Z,99276.66
2022-12-11T10:44:15.654Z,99306.56
2022-12-11T10:45:17.854Z,99274.91
2022-12-11T10:46:21.072Z,99304.47
2022-12-11T10:47:24.102Z,99317.09
2022-12-11T10:48:26.776Z,99307.44
2022-12-11T10:49:31.774Z,99310.13
2022-12-11T10:50:34.313Z,99289.13
2022-12-11T10:51:38.146Z,99284.31
2022-12-11T10:52:45.236Z,99280.09
2022-12-11T10:53:53.855Z,99302.56
2022-12-11T10:55:02.582Z,99291.50
2022-12-11T10:56:04.935Z,99302.84
2022-12-11T10:57:14.235Z,99290.94
2022-12-11T10:58:23.212Z,99288.19
2022-12-11T10:59:45.319Z,99291.38
2022-12-11T11:01:10.089Z,99287.84
2022-12-11T11:02:29.004Z,99295.56
2022-12-11T11:03:32.597Z,99264.25
2022-12-11T11:04:41.808Z,99297.69
2022-12-11T11:05:49.188Z,99291.69
2022-12-11T11:07:21.085Z,99280.69
2022-12-11T11:08:24.251Z,99287.38
2022-12-11T11:09:36.383Z,99284.44
2022-12-11T11:10:38.432Z,99258.72
2022-12-11T11:11:40.475Z,99290.31
2022-12-11T11:12:47.992Z,99290.44
2022-12-11T11:13:51.005Z,99279.13
2022-12-11T11:15:06.054Z,99284.06
2022-12-11T11:16:13.581Z,99289.13
2022-12-11T11:17:17.512Z,99283.09
2022-12-11T11:18:28.766Z,99274.59
2022-12-11T11:19:36.665Z,99286.53
2022-12-11T11:20:47.830Z,99278.75
2022-12-11T11:21:59.667Z,99259.31
2022-12-11T11:23:11.647Z,99288.44
2022-12-11T11:24:27.029Z,99278.25
2022-12-11T11:25:31.462Z,99279.81
2022-12-11T11:27:11.247Z,99270.59
2022-12-11T11:28:04.123Z,99278.81
2022-12-11T11:29:07.241Z,99277.88
2022-12-11T11:30:30.865Z,99282.00
2022-12-11T11:31:35.942Z,99273.34
2022-12-11T11:32:39.808Z,99278.28
2022-12-11T11:34:03.308Z,99277.25
2022-12-11T11:35:11.673Z,99279.03
2022-12-11T11:36:23.478Z,99272.16
2022-12-11T11:37:34.635Z,99235.66
2022-12-11T11:38:40.523Z,99277.63
2022-12-11T11:39:45.273Z,99276.81
2022-12-11T11:41:14.672Z,99275.88
2022-12-11T11:42:27.588Z,99275.13
2022-12-11T11:43:32.288Z,99275.16
2022-12-11T11:44:41.529Z,99262.47
2022-12-11T11:46:11.640Z,99270.00
2022-12-11T11:47:37.743Z,99267.44
2022-12-11T11:48:48.923Z,99271.59
2022-12-11T11:50:03.752Z,99272.50
2022-12-11T11:51:17.055Z,99262.97
2022-12-11T11:52:35.786Z,99273.19
2022-12-11T11:53:40.653Z,99276.81
2022-12-11T11:55:11.100Z,99265.00
2022-12-11T11:56:36.491Z,99275.88
2022-12-11T11:57:58.679Z,99264.63
2022-12-11T11:59:15.838Z,99269.72
2022-12-11T12:00:18.686Z,99267.13
2022-12-11T12:01:22.283Z,99267.81
2022-12-11T12:02:24.368Z,99264.34
2022-12-11T12:03:27.901Z,99245.50
2022-12-11T12:04:35.443Z,99247.06
2022-12-11T12:06:06.227Z,99272.53
2022-12-11T12:07:16.319Z,99256.19
2022-12-11T12:08:27.220Z,99260.28
2022-12-11T12:09:38.908Z,99256.09
2022-12-11T12:11:23.183Z,99257.41
2022-12-11T12:12:43.864Z,99248.00
2022-12-11T12:14:17.387Z,99259.22
2022-12-11T12:15:35.715Z,99250.56
2022-12-11T12:16:56.427Z,99250.38
2022-12-11T12:18:16.553Z,99233.72
2022-12-11T12:19:37.024Z,99245.28
2022-12-11T12:20:39.671Z,99236.47
2022-12-11T12:21:47.035Z,99238.81
2022-12-11T12:23:05.450Z,99225.75
2022-12-11T12:24:11.451Z,99225.38
2022-12-11T12:25:37.781Z,99233.44
2022-12-11T12:26:50.566Z,99207.88
2022-12-11T12:28:11.074Z,99234.78
2022-12-11T12:29:48.630Z,99232.25
2022-12-11T12:31:08.392Z,99218.09
2022-12-11T12:32:27.309Z,99208.63
2022-12-11T12:33:35.154Z,99228.97
2022-12-11T12:34:44.747Z,99224.72
2022-12-11T12:36:03.455Z,99224.81
2022-12-11T12:37:29.572Z,99225.16
2022-12-11T12:39:10.715Z,99213.91
2022-12-11T12:40:37.087Z,99210.03
2022-12-11T12:42:27.428Z,99221.72
2022-12-11T12:44:18.132Z,99220.78
2022-12-11T12:46:07.227Z,99228.50
2022-12-11T12:47:15.357Z,99220.09
2022-12-11T12:48:17.539Z,99215.63
2022-12-11T12:49:42.918Z,99223.34
2022-12-11T12:50:48.901Z,99192.28
2022-12-11T12:51:52.373Z,99235.31
2022-12-11T12:52:55.634Z,99221.81
2022-12-11T12:54:00.707Z,99198.66
2022-12-11T12:55:26.021Z,99219.66
2022-12-11T12:56:30.645Z,99202.66
2022-12-11T12:57:35.366Z,99210.88
2022-12-11T12:58:45.691Z,99149.16
2022-12-11T12:59:54.326Z,99218.50
2022-12-11T13:01:12.208Z,99214.16
2022-12-11T13:02:17.931Z,99206.66
2022-12-11T13:03:30.552Z,99206.69